Time;durP1;ratioP1;P1;durP2;ratioP2;P2;SDS_P1;SDS_P2;PMS_P1;PMS_P2;Temp;Humidity;BMP_temperature;BMP_pressure;BME280_temperature;BME280_humidity;BME280_pressure;Samples;Min_cycle;Max_cycle;Signal;HPM_P1;HPM_P2
2023/12/29 00:00:12;;;;;;;14.37;5.17;;;;;;;7.93;66.46;99681.59;5015406;28;20191;-84
2023/12/29 00:02:39;;;;;;;9.50;5.13;;;;;;;7.92;67.08;99672.03;5025913;28;20255;-84
2023/12/29 00:05:07;;;;;;;11.80;5.13;;;;;;;8.11;66.18;99673.13;5017454;28;20180;-84
2023/12/29 00:07:34;;;;;;;11.80;5.27;;;;;;;8.07;66.05;99675.91;5031006;28;20687;-84
2023/12/29 00:09:59;;;;;;;10.40;4.90;;;;;;;7.97;66.81;99667.50;5025139;28;20183;-84
2023/12/29 00:12:26;;;;;;;25.63;8.07;;;;;;;8.02;66.06;99663.84;5013185;28;20193;-84
2023/12/29 00:14:53;;;;;;;17.63;7.70;;;;;;;8.09;66.38;99666.25;5015828;28;20182;-84
2023/12/29 00:17:20;;;;;;;15.63;6.47;;;;;;;8.14;65.33;99669.56;5016053;28;20183;-84
2023/12/29 00:19:45;;;;;;;13.13;5.07;;;;;;;8.13;65.03;99673.06;5033116;28;20194;-84
2023/12/29 00:22:12;;;;;;;12.27;5.57;;;;;;;8.07;64.14;99673.31;5020029;28;20245;-83
2023/12/29 00:24:41;;;;;;;21.83;8.17;;;;;;;7.95;63.99;99678.03;5011751;28;20225;-84
2023/12/29 00:27:11;;;;;;;20.20;8.57;;;;;;;7.89;63.62;99673.00;5016424;28;20548;-84
2023/12/29 00:29:38;;;;;;;30.40;12.67;;;;;;;7.79;63.50;99679.44;5019175;28;20187;-84
2023/12/29 00:32:07;;;;;;;31.47;11.57;;;;;;;7.70;63.33;99679.75;5013546;28;20192;-84
2023/12/29 00:34:34;;;;;;;21.30;8.93;;;;;;;7.67;63.17;99681.59;5027644;28;20196;-84
2023/12/29 00:37:01;;;;;;;17.80;7.80;;;;;;;7.67;62.51;99679.84;5027324;28;20258;-84
2023/12/29 00:39:30;;;;;;;18.80;8.37;;;;;;;7.64;62.66;99679.06;5023424;28;20235;-84
2023/12/29 00:41:57;;;;;;;18.07;9.27;;;;;;;7.55;62.34;99684.59;5015710;28;20187;-83
2023/12/29 00:44:23;;;;;;;25.50;10.87;;;;;;;7.42;62.62;99679.75;5031904;28;20642;-84
2023/12/29 00:46:49;;;;;;;29.80;13.03;;;;;;;7.39;62.52;99679.84;5015575;28;20214;-84
2023/12/29 00:49:15;;;;;;;30.13;12.13;;;;;;;7.33;62.64;99680.06;5032858;28;20685;-84
2023/12/29 00:51:43;;;;;;;22.97;9.87;;;;;;;7.36;62.63;99685.13;5027538;28;20182;-84
2023/12/29 00:54:10;;;;;;;18.97;9.53;;;;;;;7.44;62.90;99687.53;5023970;28;20193;-84
2023/12/29 00:56:35;;;;;;;21.27;10.40;;;;;;;7.51;61.83;99683.84;5030383;28;20189;-84
2023/12/29 00:59:02;;;;;;;32.67;14.73;;;;;;;7.36;62.18;99685.13;5030771;28;20648;-84
2023/12/29 01:01:33;;;;;;;24.10;11.50;;;;;;;7.17;62.13;99685.75;5031229;28;20265;-84
2023/12/29 01:03:59;;;;;;;18.20;7.90;;;;;;;7.03;63.50;99680.97;5030813;28;20261;-84
2023/12/29 01:06:25;;;;;;;16.27;8.10;;;;;;;7.16;63.43;99678.84;5030877;28;20293;-84
2023/12/29 01:08:52;;;;;;;16.03;8.40;;;;;;;7.20;63.00;99677.84;5013459;28;20540;-83
2023/12/29 01:11:18;;;;;;;14.97;8.17;;;;;;;7.20;64.04;99668.28;5032564;28;20570;-84
2023/12/29 01:13:44;;;;;;;15.83;8.10;;;;;;;7.17;64.47;99675.34;5032862;28;20232;-84
2023/12/29 01:16:11;;;;;;;18.27;7.13;;;;;;;7.00;64.56;99664.53;5032777;28;20630;-84
2023/12/29 01:18:37;;;;;;;14.83;7.10;;;;;;;7.06;64.59;99659.16;5032819;28;20620;-84
2023/12/29 01:21:06;;;;;;;20.87;7.50;;;;;;;7.09;65.31;99659.06;5032700;28;20186;-84
2023/12/29 01:23:33;;;;;;;17.30;8.03;;;;;;;6.98;65.42;99648.09;5032478;28;20257;-84
2023/12/29 01:25:59;;;;;;;19.63;8.50;;;;;;;7.00;65.57;99649.75;5032676;28;20179;-84
2023/12/29 01:28:26;;;;;;;19.53;7.83;;;;;;;7.03;65.29;99648.81;5032576;28;20178;-84
2023/12/29 01:30:52;;;;;;;21.93;8.53;;;;;;;7.05;65.04;99644.44;5032727;28;20174;-84
2023/12/29 01:33:19;;;;;;;16.90;7.77;;;;;;;7.05;64.70;99644.44;5032510;28;20194;-84
2023/12/29 01:35:49;;;;;;;10.90;6.30;;;;;;;7.10;64.74;99645.97;5015270;28;20206;-84
2023/12/29 01:38:16;;;;;;;14.93;6.80;;;;;;;7.13;63.79;99637.22;5033173;28;20697;-84
2023/12/29 01:40:47;;;;;;;17.63;7.87;;;;;;;7.03;63.59;99638.38;5032570;28;20568;-83
2023/12/29 01:43:14;;;;;;;20.10;7.93;;;;;;;6.92;63.57;99625.69;5015595;28;20209;-84
2023/12/29 01:45:40;;;;;;;20.87;8.67;;;;;;;6.90;63.21;99624.88;5015177;28;20209;-84
2023/12/29 01:48:10;;;;;;;52.23;14.30;;;;;;;6.86;62.80;99625.03;5031874;28;20237;-84
2023/12/29 01:50:36;;;;;;;48.03;13.60;;;;;;;6.86;63.16;99618.06;5015070;28;20560;-84
2023/12/29 01:53:05;;;;;;;46.47;13.93;;;;;;;6.89;62.40;99617.13;5032291;28;20182;-84
2023/12/29 01:55:33;;;;;;;28.27;9.73;;;;;;;6.92;62.76;99611.81;5032731;28;20189;-83
2023/12/29 01:57:59;;;;;;;26.40;8.50;;;;;;;7.00;61.82;99607.22;5035781;28;20193;-84
2023/12/29 02:00:26;;;;;;;15.03;7.80;;;;;;;6.99;62.11;99608.13;5035974;28;20556;-84
2023/12/29 02:02:56;;;;;;;16.43;7.50;;;;;;;6.86;62.52;99599.84;5035907;28;20182;-84
2023/12/29 02:05:24;;;;;;;29.17;11.50;;;;;;;6.73;63.21;99598.50;5035483;28;20178;-83
2023/12/29 02:07:52;;;;;;;33.43;13.23;;;;;;;6.69;62.90;99605.53;5017992;28;20305;-83
2023/12/29 02:10:18;;;;;;;23.77;9.63;;;;;;;6.67;63.00;99599.53;5018119;28;20230;-84
2023/12/29 02:12:47;;;;;;;22.73;10.67;;;;;;;6.53;63.89;99591.25;5035366;28;20304;-83
2023/12/29 02:15:12;;;;;;;27.00;11.43;;;;;;;6.54;63.88;99592.97;5035590;28;20224;-83
2023/12/29 02:17:47;;;;;;;27.23;10.63;;;;;;;6.67;63.14;99596.06;5035909;28;20174;-84
2023/12/29 02:20:14;;;;;;;17.93;8.53;;;;;;;6.66;63.78;99597.81;5018187;28;20170;-84
2023/12/29 02:22:41;;;;;;;29.90;9.97;;;;;;;6.60;63.07;99597.16;5035301;28;20606;-83
2023/12/29 02:25:06;;;;;;;14.77;8.23;;;;;;;6.64;63.24;99591.78;5017781;28;20635;-83
2023/12/29 02:27:38;;;;;;;19.17;8.50;;;;;;;6.67;63.27;99594.31;5017812;28;20670;-83
2023/12/29 02:30:18;;;;;;;21.43;9.67;;;;;;;6.68;63.32;99595.19;5035494;28;20178;-83
2023/12/29 02:32:46;;;;;;;25.33;9.43;;;;;;;6.59;63.23;99591.09;5035134;28;20215;-83
2023/12/29 02:35:30;;;;;;;14.37;7.47;;;;;;;6.54;62.78;99595.56;5035573;28;20185;-84
2023/12/29 02:37:56;;;;;;;16.17;6.57;;;;;;;6.45;63.43;99590.63;5017626;28;20182;-84
2023/12/29 02:40:25;;;;;;;21.97;9.37;;;;;;;6.46;63.28;99589.72;5017808;28;20178;-83
2023/12/29 02:42:52;;;;;;;20.27;8.70;;;;;;;6.52;63.25;99594.78;5035483;28;20178;-84
2023/12/29 02:45:19;;;;;;;15.20;7.10;;;;;;;6.59;62.39;99590.22;5034930;28;20186;-83
2023/12/29 02:47:46;;;;;;;13.97;6.00;;;;;;;6.49;63.32;99587.03;5035054;28;20654;-83
2023/12/29 02:50:11;;;;;;;13.17;6.77;;;;;;;6.42;62.88;99588.09;5035093;28;20171;-84
2023/12/29 02:52:38;;;;;;;11.63;5.43;;;;;;;6.37;63.54;99579.56;5034821;28;20190;-83
2023/12/29 02:55:05;;;;;;;9.13;5.07;;;;;;;6.39;63.46;99575.19;5034878;28;20193;-83
2023/12/29 02:57:31;;;;;;;8.83;4.70;;;;;;;6.36;63.84;99577.00;5034932;28;20174;-83
2023/12/29 02:59:57;;;;;;;12.00;5.40;;;;;;;6.44;63.95;99575.06;5034658;28;20637;-83
2023/12/29 03:02:24;;;;;;;10.60;5.70;;;;;;;6.57;63.66;99577.25;5034810;28;20175;-83
2023/12/29 03:04:51;;;;;;;12.23;5.87;;;;;;;6.65;63.59;99585.69;5017336;28;20187;-83
2023/12/29 03:07:18;;;;;;;6.80;3.93;;;;;;;6.72;63.39;99584.63;5034046;28;20194;-83
2023/12/29 03:09:45;;;;;;;7.57;3.77;;;;;;;6.43;65.95;99584.59;5034746;28;20252;-83
2023/12/29 03:12:10;;;;;;;10.57;5.27;;;;;;;6.28;66.58;99584.19;5034740;28;20179;-83
2023/12/29 03:14:37;;;;;;;7.90;4.03;;;;;;;6.46;65.98;99581.91;5034578;28;20193;-83
2023/12/29 03:17:03;;;;;;;9.60;4.07;;;;;;;6.64;66.04;99586.59;5034528;28;20236;-83
2023/12/29 03:19:29;;;;;;;9.27;4.17;;;;;;;6.56;66.93;99575.53;5016859;28;20637;-83
2023/12/29 03:21:56;;;;;;;7.77;4.77;;;;;;;6.52;67.10;99579.16;5033984;28;20201;-83
2023/12/29 03:24:23;;;;;;;7.67;4.00;;;;;;;6.52;66.69;99571.34;5016759;28;20560;-83
2023/12/29 03:26:50;;;;;;;12.97;4.50;;;;;;;6.67;66.64;99573.47;5034077;28;20236;-83
2023/12/29 03:29:16;;;;;;;9.73;3.63;;;;;;;6.77;65.84;99580.13;5034842;28;20244;-83
2023/12/29 03:31:42;;;;;;;12.53;4.97;;;;;;;6.75;65.29;99575.84;5016580;28;20248;-83
2023/12/29 03:34:08;;;;;;;24.30;7.37;;;;;;;6.77;65.10;99574.91;5034218;28;20186;-83
2023/12/29 03:36:35;;;;;;;15.17;6.30;;;;;;;6.84;65.31;99574.72;5034279;28;20178;-83
2023/12/29 03:39:02;;;;;;;8.07;4.30;;;;;;;6.81;63.86;99579.09;5034379;28;20199;-83
2023/12/29 03:41:28;;;;;;;7.30;4.40;;;;;;;6.78;63.78;99570.56;5016428;28;20196;-83
2023/12/29 03:43:56;;;;;;;16.80;7.60;;;;;;;6.72;62.55;99565.50;5034310;28;20262;-83
2023/12/29 03:46:23;;;;;;;14.40;6.93;;;;;;;6.72;62.23;99571.59;5016508;28;20602;-83
2023/12/29 03:48:49;;;;;;;16.53;7.53;;;;;;;6.73;62.70;99569.84;5033780;28;20195;-84
2023/12/29 03:51:17;;;;;;;14.70;7.37;;;;;;;6.75;62.08;99576.72;5033514;28;20181;-84
2023/12/29 03:53:43;;;;;;;15.77;6.60;;;;;;;6.73;61.17;99570.66;5033638;28;20174;-83
2023/12/29 03:56:15;;;;;;;11.50;5.97;;;;;;;6.78;60.89;99579.22;5033702;28;20259;-83
2023/12/29 03:58:41;;;;;;;17.33;7.63;;;;;;;6.77;60.90;99580.13;5016264;28;20193;-83
2023/12/29 04:01:11;;;;;;;11.93;5.97;;;;;;;6.54;60.78;99585.16;5033515;28;20187;-84
2023/12/29 04:03:39;;;;;;;14.73;7.33;;;;;;;6.38;61.80;99581.28;5033678;28;20221;-83
2023/12/29 04:06:06;;;;;;;18.23;7.63;;;;;;;6.27;62.03;99583.34;5033186;28;20280;-83
2023/12/29 04:08:34;;;;;;;15.20;7.03;;;;;;;6.09;63.40;99578.63;5016247;28;20180;-83
2023/12/29 04:11:00;;;;;;;14.50;6.43;;;;;;;6.15;63.66;99574.13;5033427;28;20194;-83
2023/12/29 04:13:27;;;;;;;17.43;6.93;;;;;;;6.14;63.54;99568.94;5033443;28;20641;-83
2023/12/29 04:15:53;;;;;;;10.53;6.17;;;;;;;6.24;63.46;99566.97;5033489;28;20179;-83
2023/12/29 04:18:22;;;;;;;27.63;8.43;;;;;;;6.29;63.25;99562.47;5033270;28;20656;-83
2023/12/29 04:20:49;;;;;;;13.10;7.20;;;;;;;6.29;63.26;99563.31;5033338;28;20214;-83
2023/12/29 04:23:16;;;;;;;22.03;9.80;;;;;;;6.24;62.43;99567.78;5033398;28;20210;-83
2023/12/29 04:25:43;;;;;;;17.43;6.90;;;;;;;6.21;62.30;99557.47;5015691;28;20202;-83
2023/12/29 04:28:09;;;;;;;14.83;6.40;;;;;;;6.00;63.80;99568.50;5033192;28;20598;-83
2023/12/29 04:30:36;;;;;;;11.57;6.23;;;;;;;6.08;63.60;99563.91;5033312;28;20205;-84
2023/12/29 04:33:03;;;;;;;8.63;4.83;;;;;;;5.98;63.58;99572.88;5033126;28;20694;-83
2023/12/29 04:35:30;;;;;;;10.07;4.73;;;;;;;5.80;64.12;99568.13;5015802;28;20649;-83
2023/12/29 04:37:56;;;;;;;12.47;5.53;;;;;;;5.62;64.47;99579.00;5032969;28;20642;-83
2023/12/29 04:40:21;;;;;;;15.80;5.93;;;;;;;5.75;63.78;99575.19;5033464;28;20644;-83
2023/12/29 04:42:47;;;;;;;7.40;4.30;;;;;;;5.75;63.91;99562.19;5032874;28;20178;-83
2023/12/29 04:45:13;;;;;;;11.23;4.17;;;;;;;5.72;64.25;99567.47;5033109;28;20189;-83
2023/12/29 04:47:39;;;;;;;11.20;5.27;;;;;;;5.71;64.24;99568.38;5032724;28;20662;-83
2023/12/29 04:50:06;;;;;;;9.93;4.77;;;;;;;5.77;63.97;99563.00;5033121;28;20227;-83
2023/12/29 04:52:33;;;;;;;12.00;4.83;;;;;;;5.88;63.85;99563.59;5015459;28;20559;-83
2023/12/29 04:54:58;;;;;;;8.73;3.57;;;;;;;5.86;63.83;99566.25;5032952;28;20185;-83
2023/12/29 04:57:25;;;;;;;8.37;3.40;;;;;;;5.75;63.75;99562.19;5033015;28;20532;-83
2023/12/29 04:59:51;;;;;;;8.67;4.07;;;;;;;5.70;64.42;99561.47;5032485;28;20275;-83
2023/12/29 05:02:19;;;;;;;17.07;6.60;;;;;;;5.82;64.57;99564.59;5015341;28;20190;-83
2023/12/29 05:04:46;;;;;;;11.87;4.80;;;;;;;5.79;64.33;99563.84;5033230;28;20253;-83
2023/12/29 05:07:13;;;;;;;13.93;5.40;;;;;;;5.65;65.43;99568.53;5032787;28;20204;-83
2023/12/29 05:09:40;;;;;;;10.80;4.73;;;;;;;5.52;65.54;99566.25;5033175;28;20186;-83
2023/12/29 05:12:07;;;;;;;10.77;4.50;;;;;;;5.45;66.75;99563.84;5032706;28;20244;-83
2023/12/29 05:14:33;;;;;;;9.77;4.73;;;;;;;5.59;66.72;99562.59;5015473;28;20285;-83
2023/12/29 05:17:00;;;;;;;11.50;4.80;;;;;;;5.65;66.64;99556.38;5032557;28;20193;-83
2023/12/29 05:19:25;;;;;;;10.00;5.30;;;;;;;5.54;66.55;99561.00;5033071;28;20178;-83
2023/12/29 05:21:51;;;;;;;9.73;4.90;;;;;;;5.51;66.64;99554.13;5032256;28;20584;-83
2023/12/29 05:24:17;;;;;;;9.17;4.20;;;;;;;5.57;67.03;99545.31;5032474;28;20230;-83
2023/12/29 05:26:44;;;;;;;9.60;4.73;;;;;;;5.62;66.65;99540.84;5032700;28;20523;-83
2023/12/29 05:29:09;;;;;;;8.70;4.13;;;;;;;5.69;66.38;99541.53;5032376;28;20182;-83
2023/12/29 05:31:34;;;;;;;9.13;4.50;;;;;;;5.83;65.75;99537.69;5032645;28;20183;-83
2023/12/29 05:34:01;;;;;;;8.07;4.30;;;;;;;5.88;66.09;99548.84;5035061;28;20194;-83
2023/12/29 05:36:28;;;;;;;11.63;4.90;;;;;;;5.88;65.72;99548.00;5034446;28;20166;-83
2023/12/29 05:38:53;;;;;;;8.10;3.90;;;;;;;5.81;65.80;99551.63;5034397;28;20622;-83
2023/12/29 05:41:20;;;;;;;7.97;4.00;;;;;;;5.67;66.07;99549.41;5036037;28;20192;-83
2023/12/29 05:43:45;;;;;;;7.87;3.03;;;;;;;5.64;65.91;99557.25;5018605;28;20186;-83
2023/12/29 05:46:12;;;;;;;6.03;3.57;;;;;;;5.79;66.25;99553.44;5036459;28;20179;-83
2023/12/29 05:48:38;;;;;;;8.93;3.87;;;;;;;5.97;66.16;99553.81;5036326;28;20186;-83
2023/12/29 05:51:13;;;;;;;6.00;3.10;;;;;;;6.06;65.96;99547.50;5036451;28;20181;-83
2023/12/29 05:53:43;;;;;;;4.23;2.40;;;;;;;6.03;66.43;99548.44;5018619;28;20180;-83
2023/12/29 05:56:16;;;;;;;5.77;2.83;;;;;;;6.04;66.14;99552.75;5036131;28;20193;-83
2023/12/29 05:58:43;;;;;;;8.40;3.30;;;;;;;6.11;66.37;99550.81;5035578;28;20170;-83
2023/12/29 06:01:09;;;;;;;6.33;3.30;;;;;;;6.02;67.14;99545.88;5034997;28;20190;-83
2023/12/29 06:03:36;;;;;;;5.07;2.97;;;;;;;5.91;67.62;99537.50;5035604;28;20244;-83
2023/12/29 06:06:03;;;;;;;4.63;2.50;;;;;;;5.88;67.70;99545.41;5035880;28;20174;-83
2023/12/29 06:08:29;;;;;;;6.03;2.97;;;;;;;6.05;68.36;99544.03;5018275;28;20209;-83
2023/12/29 06:10:55;;;;;;;6.27;2.53;;;;;;;6.18;68.27;99541.97;5018385;28;20561;-83
2023/12/29 06:13:21;;;;;;;3.83;2.30;;;;;;;6.26;68.38;99542.59;5018014;28;20174;-83
2023/12/29 06:15:47;;;;;;;5.07;2.97;;;;;;;6.22;68.46;99547.91;5018315;28;20197;-83
2023/12/29 06:18:14;;;;;;;5.00;2.40;;;;;;;6.29;68.96;99552.06;5018112;28;20174;-83
2023/12/29 06:20:41;;;;;;;5.43;2.97;;;;;;;6.28;68.63;99553.81;5035479;28;20182;-83
2023/12/29 06:23:08;;;;;;;5.63;3.00;;;;;;;6.47;68.59;99554.13;5035474;28;20166;-83
2023/12/29 06:25:34;;;;;;;5.97;2.90;;;;;;;6.65;68.63;99556.19;5034465;28;20198;-83
2023/12/29 06:28:03;;;;;;;7.20;2.47;;;;;;;6.73;68.65;99562.03;5033935;28;20218;-83
2023/12/29 06:30:30;;;;;;;6.97;2.50;;;;;;;6.69;68.67;99560.41;5016536;28;20649;-83
2023/12/29 06:32:57;;;;;;;5.83;2.53;;;;;;;6.85;68.94;99555.56;5034442;28;20593;-83
2023/12/29 06:35:23;;;;;;;6.93;3.10;;;;;;;6.95;69.24;99552.63;5017814;28;20360;-83
2023/12/29 06:37:48;;;;;;;5.77;3.43;;;;;;;7.43;70.63;99550.19;5033958;28;20239;-84
2023/12/29 06:40:16;;;;;;;6.43;3.07;;;;;;;8.51;69.91;99549.84;5017741;28;20188;-84
2023/12/29 06:42:43;;;;;;;6.53;2.80;;;;;;;9.60;66.41;99537.59;5033283;28;20178;-84
2023/12/29 06:45:09;;;;;;;5.90;2.97;;;;;;;10.94;63.25;99536.75;5035223;28;20217;-84
2023/12/29 06:47:36;;;;;;;6.37;3.03;;;;;;;12.56;56.96;99523.16;5034577;28;20203;-84
2023/12/29 06:50:04;;;;;;;5.70;2.87;;;;;;;13.90;51.18;99504.00;5034997;28;20193;-84
2023/12/29 06:52:33;;;;;;;7.70;3.90;;;;;;;14.39;48.73;99498.38;5034798;28;20265;-84
2023/12/29 06:55:01;;;;;;;7.43;2.60;;;;;;;13.92;47.43;99496.00;5035206;28;20225;-84
2023/12/29 06:57:27;;;;;;;16.80;4.13;;;;;;;13.80;47.76;99502.88;5034951;28;20178;-84
2023/12/29 06:59:53;;;;;;;7.57;2.63;;;;;;;13.82;47.38;99500.97;5034657;28;20193;-84
2023/12/29 07:02:20;;;;;;;9.33;3.80;;;;;;;13.56;47.39;99504.31;5017482;28;20174;-84
2023/12/29 07:04:46;;;;;;;9.50;3.77;;;;;;;13.28;48.37;99510.34;5034816;28;20263;-84
2023/12/29 07:07:15;;;;;;;15.77;6.17;;;;;;;12.99;47.95;99512.91;5031876;28;21033;-83
2023/12/29 07:09:40;;;;;;;15.27;8.10;;;;;;;12.91;48.79;99508.94;5000703;28;20571;-84
2023/12/29 07:12:07;;;;;;;18.70;8.97;;;;;;;12.94;49.00;99521.88;5009722;28;20180;-84
2023/12/29 07:14:35;;;;;;;24.03;12.00;;;;;;;13.07;48.21;99521.25;5014609;28;20178;-84
2023/12/29 07:17:03;;;;;;;24.37;12.53;;;;;;;13.18;47.27;99529.38;5028308;28;20192;-83
2023/12/29 07:19:35;;;;;;;24.90;11.80;;;;;;;13.16;46.95;99526.81;5020745;28;20179;-84
2023/12/29 07:22:08;;;;;;;26.43;12.10;;;;;;;13.03;46.70;99531.06;5021255;28;20643;-84
2023/12/29 07:24:35;;;;;;;16.50;7.50;;;;;;;12.73;47.14;99525.72;5030468;28;20713;-84
2023/12/29 07:27:02;;;;;;;12.27;5.47;;;;;;;12.32;48.67;99519.22;5023402;28;20269;-84
2023/12/29 07:29:29;;;;;;;16.63;7.30;;;;;;;12.09;49.22;99524.84;5024146;28;20174;-84
2023/12/29 07:31:55;;;;;;;13.73;6.43;;;;;;;11.92;50.37;99524.88;5017618;28;20179;-83
2023/12/29 07:34:22;;;;;;;12.67;6.10;;;;;;;11.64;51.72;99530.66;5023924;28;20301;-83
2023/12/29 07:36:49;;;;;;;26.03;10.00;;;;;;;11.50;52.87;99531.34;5018375;28;20214;-84
2023/12/29 07:39:14;;;;;;;25.60;13.13;;;;;;;11.44;53.50;99542.16;5027189;28;20207;-83
2023/12/29 07:41:42;;;;;;;25.93;12.10;;;;;;;11.39;54.58;99538.06;5014208;28;20265;-84
2023/12/29 07:44:12;;;;;;;22.93;12.13;;;;;;;11.36;54.95;99539.06;5032192;28;20174;-83
2023/12/29 07:46:39;;;;;;;29.03;13.30;;;;;;;11.35;56.05;99539.97;5032049;28;20274;-84
2023/12/29 07:49:04;;;;;;;16.57;8.37;;;;;;;11.33;56.74;99543.59;5032085;28;20178;-83
2023/12/29 07:51:30;;;;;;;16.73;9.13;;;;;;;11.42;56.98;99543.16;5032060;28;20182;-84
2023/12/29 07:53:55;;;;;;;22.53;11.03;;;;;;;11.42;57.66;99541.41;5030926;28;20244;-84
2023/12/29 07:56:20;;;;;;;27.67;13.10;;;;;;;11.51;57.85;99533.06;5015296;28;20248;-84
2023/12/29 07:58:46;;;;;;;32.17;15.90;;;;;;;11.58;56.91;99531.81;5029660;28;20543;-84
2023/12/29 08:01:11;;;;;;;34.70;16.07;;;;;;;11.74;57.06;99539.78;5013148;28;20218;-84
2023/12/29 08:03:38;;;;;;;42.13;15.47;;;;;;;11.84;56.66;99535.78;5009605;28;20264;-84
2023/12/29 08:06:03;;;;;;;36.67;15.80;;;;;;;11.91;55.84;99541.56;5027330;28;20684;-84
2023/12/29 08:08:29;;;;;;;39.77;17.73;;;;;;;12.02;56.15;99537.47;5015183;28;20214;-84
2023/12/29 08:10:56;;;;;;;30.97;14.83;;;;;;;12.14;56.30;99534.19;5024681;28;20184;-83
2023/12/29 08:13:22;;;;;;;36.90;15.33;;;;;;;12.26;56.08;99538.78;5025813;28;20197;-84
2023/12/29 08:15:47;;;;;;;29.77;14.17;;;;;;;12.45;56.39;99543.91;5001383;28;20613;-84
2023/12/29 08:18:14;;;;;;;25.00;11.63;;;;;;;12.53;54.66;99541.72;5010609;28;20183;-84
2023/12/29 08:20:41;;;;;;;29.40;10.77;;;;;;;12.56;53.96;99538.94;5032983;28;20555;-84
2023/12/29 08:23:09;;;;;;;22.37;9.87;;;;;;;12.84;54.39;99536.47;5009117;28;20182;-84
2023/12/29 08:25:36;;;;;;;21.37;9.47;;;;;;;13.01;53.79;99542.59;5032641;28;20691;-84
2023/12/29 08:28:03;;;;;;;22.47;10.27;;;;;;;13.25;52.88;99543.88;5033017;28;20216;-84
2023/12/29 08:30:30;;;;;;;23.17;9.27;;;;;;;13.45;52.89;99544.44;5015524;28;20283;-84
2023/12/29 08:32:55;;;;;;;14.03;6.43;;;;;;;13.39;51.21;99536.88;5033130;28;20275;-84
2023/12/29 08:35:21;;;;;;;17.87;7.57;;;;;;;13.50;51.21;99536.25;5033064;28;20590;-84
2023/12/29 08:37:47;;;;;;;12.80;6.17;;;;;;;13.62;51.77;99543.47;5033363;28;20173;-84
2023/12/29 08:40:12;;;;;;;16.10;7.37;;;;;;;13.71;50.59;99536.78;5014817;28;20182;-84
2023/12/29 08:42:37;;;;;;;12.80;6.63;;;;;;;13.65;49.72;99532.75;5015637;28;20247;-84
2023/12/29 08:45:04;;;;;;;19.30;6.27;;;;;;;13.77;49.66;99526.75;5033007;28;20178;-84
2023/12/29 08:47:30;;;;;;;16.63;6.43;;;;;;;14.03;48.63;99520.78;5032862;28;20205;-84
2023/12/29 08:49:56;;;;;;;14.80;6.27;;;;;;;14.09;47.11;99520.41;5015618;28;20190;-84
2023/12/29 08:52:22;;;;;;;19.90;9.37;;;;;;;14.24;47.32;99523.03;5033063;28;20210;-84
2023/12/29 08:54:49;;;;;;;27.17;10.57;;;;;;;14.47;47.22;99520.72;5015504;28;20276;-84
2023/12/29 08:57:15;;;;;;;14.73;6.27;;;;;;;14.55;45.21;99522.88;5032669;28;20186;-84
2023/12/29 08:59:43;;;;;;;11.17;5.63;;;;;;;14.62;44.95;99524.19;5032852;28;20179;-84
2023/12/29 09:02:10;;;;;;;15.40;6.10;;;;;;;14.79;44.51;99518.69;5032797;28;20182;-84
2023/12/29 09:04:35;;;;;;;12.07;5.60;;;;;;;14.95;44.63;99513.28;5032726;28;20178;-84
2023/12/29 09:07:01;;;;;;;10.87;5.33;;;;;;;15.04;43.76;99510.88;5017902;28;20234;-84
2023/12/29 09:09:26;;;;;;;8.83;4.13;;;;;;;15.21;42.84;99512.44;5036868;28;20259;-84
2023/12/29 09:11:52;;;;;;;9.70;4.53;;;;;;;15.38;43.19;99505.06;5033207;28;20186;-84
2023/12/29 09:14:18;;;;;;;7.60;3.20;;;;;;;15.40;41.64;99507.63;5019011;28;20557;-85
2023/12/29 09:16:46;;;;;;;7.63;3.53;;;;;;;15.39;41.96;99496.22;5036826;28;20226;-85
2023/12/29 09:19:12;;;;;;;6.47;2.70;;;;;;;15.53;42.21;99497.13;5035822;28;20191;-85
2023/12/29 09:21:37;;;;;;;9.90;2.70;;;;;;;15.62;42.04;99497.34;5036538;28;20270;-85
2023/12/29 09:24:04;;;;;;;5.83;2.87;;;;;;;15.85;42.39;99493.16;5036569;28;20185;-85
2023/12/29 09:26:31;;;;;;;9.53;5.47;;;;;;;16.00;42.17;99489.47;5035971;28;20687;-85
2023/12/29 09:28:56;;;;;;;9.00;4.20;;;;;;;15.96;41.96;99487.97;5036013;28;20191;-85
2023/12/29 09:31:23;;;;;;;11.33;5.03;;;;;;;15.92;42.45;99484.69;5018841;28;20176;-86
2023/12/29 09:33:50;;;;;;;13.17;5.33;;;;;;;15.98;42.78;99478.16;5018619;28;20199;-85
2023/12/29 09:36:16;;;;;;;13.33;6.80;;;;;;;16.11;42.98;99473.69;5035215;28;20192;-85
2023/12/29 09:38:45;;;;;;;18.07;7.27;;;;;;;16.35;43.04;99466.66;5035590;28;20300;-85
2023/12/29 09:41:14;;;;;;;17.33;7.63;;;;;;;16.52;42.21;99460.19;5035198;28;20177;-86
2023/12/29 09:43:40;;;;;;;14.97;7.57;;;;;;;16.49;42.88;99461.25;5035367;28;20189;-85
2023/12/29 09:46:08;;;;;;;14.53;7.77;;;;;;;16.80;42.33;99454.59;5036025;28;20280;-87
2023/12/29 09:48:36;;;;;;;18.30;9.07;;;;;;;17.03;41.98;99451.13;5018471;28;20201;-85
2023/12/29 09:51:06;;;;;;;15.93;7.73;;;;;;;17.03;41.08;99450.28;5036010;28;20188;-86
2023/12/29 09:53:35;;;;;;;17.20;7.40;;;;;;;16.91;41.31;99445.88;5036045;28;20184;-86
2023/12/29 09:56:04;;;;;;;18.87;8.57;;;;;;;17.00;40.71;99447.88;5035845;28;20193;-86
2023/12/29 09:58:29;;;;;;;32.70;12.93;;;;;;;16.88;41.00;99440.81;5018537;28;20257;-86
2023/12/29 10:00:56;;;;;;;24.73;12.10;;;;;;;17.14;41.87;99431.78;5035625;28;20336;-87
2023/12/29 10:03:22;;;;;;;20.97;10.70;;;;;;;17.32;40.63;99426.94;5018443;28;20629;-86
2023/12/29 10:05:56;;;;;;;14.67;6.97;;;;;;;16.89;41.57;99424.81;5035838;28;20667;-86
2023/12/29 10:08:24;;;;;;;13.20;6.63;;;;;;;17.04;42.11;99412.25;5036136;28;20186;-87
2023/12/29 10:10:52;;;;;;;9.73;5.00;;;;;;;17.33;41.97;99413.53;5035647;28;20205;-88
2023/12/29 10:13:19;;;;;;;17.27;5.53;;;;;;;17.12;42.04;99405.41;5036556;28;20178;-87
2023/12/29 10:15:54;;;;;;;11.47;4.43;;;;;;;17.26;41.90;99400.88;5017866;28;20182;-87
2023/12/29 10:18:30;;;;;;;10.70;4.87;;;;;;;17.10;42.61;99406.50;5010041;28;20192;-86
2023/12/29 10:21:16;;;;;;;13.67;5.97;;;;;;;17.07;43.04;99393.47;5029577;28;20332;-86
2023/12/29 10:24:10;;;;;;;11.27;5.00;;;;;;;17.29;43.27;99393.56;5013723;28;20236;-86
2023/12/29 10:26:36;;;;;;;10.37;4.57;;;;;;;17.04;43.77;99396.34;5032451;28;20209;-88
2023/12/29 10:29:02;;;;;;;11.00;3.70;;;;;;;16.90;44.84;99394.72;5034942;28;20541;-86
2023/12/29 10:31:28;;;;;;;8.50;3.70;;;;;;;16.98;44.61;99391.53;5039638;28;20185;-87
2023/12/29 10:34:30;;;;;;;7.90;3.33;;;;;;;17.06;44.83;99394.41;5041098;28;20205;-86
2023/12/29 10:36:56;;;;;;;8.73;3.93;;;;;;;17.50;45.23;99380.47;5012680;28;20190;-86
2023/12/29 10:39:22;;;;;;;8.30;3.87;;;;;;;17.95;44.77;99370.78;5034444;28;20592;-86
2023/12/29 10:41:48;;;;;;;6.80;3.20;;;;;;;18.25;43.72;99370.97;5028184;28;20631;-86
2023/12/29 10:44:13;;;;;;;8.40;3.93;;;;;;;18.39;43.98;99358.28;5007309;28;20186;-87
2023/12/29 10:46:40;;;;;;;10.00;3.70;;;;;;;18.80;43.33;99354.09;5013249;28;20208;-87
2023/12/29 10:49:13;;;;;;;8.93;4.27;;;;;;;18.89;43.31;99348.84;5029600;28;20192;-87
2023/12/29 10:51:40;;;;;;;9.80;4.17;;;;;;;18.96;42.92;99336.75;5030482;28;20186;-87
2023/12/29 10:54:06;;;;;;;8.37;3.90;;;;;;;18.96;42.94;99336.75;5029777;28;20189;-86
2023/12/29 10:56:33;;;;;;;7.10;3.40;;;;;;;18.85;42.75;99339.44;5032330;28;20178;-88
2023/12/29 10:59:03;;;;;;;12.10;4.47;;;;;;;18.01;44.27;99341.09;5014977;28;20269;-86
2023/12/29 11:01:30;;;;;;;10.03;3.70;;;;;;;18.08;45.22;99331.69;5015119;28;20637;-87
2023/12/29 11:04:05;;;;;;;6.70;3.53;;;;;;;18.23;44.16;99330.47;5033378;28;20597;-87
2023/12/29 11:06:52;;;;;;;9.43;3.87;;;;;;;18.60;44.58;99315.06;5033110;28;20185;-87
2023/12/29 11:09:34;;;;;;;11.67;3.87;;;;;;;19.12;43.97;99307.06;5033630;28;20630;-87
2023/12/29 11:12:01;;;;;;;5.07;3.00;;;;;;;19.29;43.15;99305.63;5017178;28;20185;-87
2023/12/29 11:14:29;;;;;;;5.93;2.67;;;;;;;19.43;42.76;99300.00;5017200;28;20266;-87
2023/12/29 11:16:56;;;;;;;6.70;3.23;;;;;;;19.65;41.89;99301.66;5014792;28;20278;-88
2023/12/29 11:19:21;;;;;;;7.47;3.03;;;;;;;19.81;41.38;99294.84;5030769;28;20182;-87
2023/12/29 11:21:51;;;;;;;11.93;3.67;;;;;;;19.98;41.85;99294.22;5034783;28;20225;-88
2023/12/29 11:24:17;;;;;;;6.03;3.67;;;;;;;20.06;40.70;99294.38;5016720;28;20218;-87
2023/12/29 11:26:44;;;;;;;6.90;3.40;;;;;;;20.21;40.36;99298.31;5034292;28;20198;-88
2023/12/29 11:29:11;;;;;;;15.50;3.70;;;;;;;20.21;40.96;99290.34;5033196;28;20189;-88
2023/12/29 11:31:38;;;;;;;5.53;3.10;;;;;;;20.23;40.62;99293.72;5017048;28;20626;-88